sensor_id;sensor_type;location;lat;lon;timestamp;P1;durP1;ratioP1;P2;durP2;ratioP2
54197;SDS011;40105;52.366;17.000;2022-08-03T00:01:00;9.50;;;4.43;;
54197;SDS011;40105;52.366;17.000;2022-08-03T00:03:26;9.43;;;4.93;;
54197;SDS011;40105;52.366;17.000;2022-08-03T00:05:51;6.80;;;4.90;;
54197;SDS011;40105;52.366;17.000;2022-08-03T00:08:16;10.90;;;4.87;;
54197;SDS011;40105;52.366;17.000;2022-08-03T00:10:41;6.57;;;4.37;;
54197;SDS011;40105;52.366;17.000;2022-08-03T00:13:06;12.03;;;4.63;;
54197;SDS011;40105;52.366;17.000;2022-08-03T00:15:32;8.17;;;4.10;;
54197;SDS011;40105;52.366;17.000;2022-08-03T00:17:57;7.83;;;4.33;;
54197;SDS011;40105;52.366;17.000;2022-08-03T00:20:22;6.20;;;4.17;;
54197;SDS011;40105;52.366;17.000;2022-08-03T00:22:48;11.87;;;5.30;;
54197;SDS011;40105;52.366;17.000;2022-08-03T00:25:13;13.32;;;4.57;;
54197;SDS011;40105;52.366;17.000;2022-08-03T00:27:38;8.47;;;4.83;;
54197;SDS011;40105;52.366;17.000;2022-08-03T00:30:03;8.83;;;4.60;;
54197;SDS011;40105;52.366;17.000;2022-08-03T00:32:29;10.43;;;4.80;;
54197;SDS011;40105;52.366;17.000;2022-08-03T00:34:54;9.10;;;4.70;;
54197;SDS011;40105;52.366;17.000;2022-08-03T00:37:19;8.02;;;5.05;;
54197;SDS011;40105;52.366;17.000;2022-08-03T00:39:44;11.83;;;5.63;;
54197;SDS011;40105;52.366;17.000;2022-08-03T00:42:11;12.18;;;5.53;;
54197;SDS011;40105;52.366;17.000;2022-08-03T00:44:40;10.87;;;5.43;;
54197;SDS011;40105;52.366;17.000;2022-08-03T00:47:06;14.88;;;5.60;;
54197;SDS011;40105;52.366;17.000;2022-08-03T00:49:31;8.50;;;5.57;;
54197;SDS011;40105;52.366;17.000;2022-08-03T00:51:56;16.17;;;5.20;;
54197;SDS011;40105;52.366;17.000;2022-08-03T00:54:21;10.53;;;5.43;;
54197;SDS011;40105;52.366;17.000;2022-08-03T00:56:47;12.55;;;5.43;;
54197;SDS011;40105;52.366;17.000;2022-08-03T00:59:13;10.40;;;5.63;;
54197;SDS011;40105;52.366;17.000;2022-08-03T01:01:38;11.20;;;5.43;;
54197;SDS011;40105;52.366;17.000;2022-08-03T01:04:03;8.30;;;5.30;;
54197;SDS011;40105;52.366;17.000;2022-08-03T01:06:36;11.27;;;5.80;;
54197;SDS011;40105;52.366;17.000;2022-08-03T01:09:11;8.35;;;5.25;;
54197;SDS011;40105;52.366;17.000;2022-08-03T01:11:46;11.20;;;5.82;;
54197;SDS011;40105;52.366;17.000;2022-08-03T01:14:18;8.90;;;5.57;;
54197;SDS011;40105;52.366;17.000;2022-08-03T01:24:21;7.90;;;5.57;;
54197;SDS011;40105;52.366;17.000;2022-08-03T01:26:57;8.85;;;5.15;;
54197;SDS011;40105;52.366;17.000;2022-08-03T01:32:09;7.85;;;5.20;;
54197;SDS011;40105;52.366;17.000;2022-08-03T01:34:35;8.07;;;5.10;;
54197;SDS011;40105;52.366;17.000;2022-08-03T01:37:05;14.00;;;5.93;;
54197;SDS011;40105;52.366;17.000;2022-08-03T01:39:31;9.73;;;5.95;;
54197;SDS011;40105;52.366;17.000;2022-08-03T01:42:00;9.55;;;5.93;;
54197;SDS011;40105;52.366;17.000;2022-08-03T01:44:30;10.65;;;5.22;;
54197;SDS011;40105;52.366;17.000;2022-08-03T01:46:57;19.08;;;6.35;;
54197;SDS011;40105;52.366;17.000;2022-08-03T01:49:23;10.32;;;5.35;;
54197;SDS011;40105;52.366;17.000;2022-08-03T01:51:49;8.93;;;5.75;;
54197;SDS011;40105;52.366;17.000;2022-08-03T01:54:16;13.65;;;5.30;;
54197;SDS011;40105;52.366;17.000;2022-08-03T01:56:42;7.75;;;5.55;;
54197;SDS011;40105;52.366;17.000;2022-08-03T01:59:08;10.13;;;5.88;;
54197;SDS011;40105;52.366;17.000;2022-08-03T02:01:35;8.57;;;5.38;;
54197;SDS011;40105;52.366;17.000;2022-08-03T02:04:01;9.77;;;6.15;;
54197;SDS011;40105;52.366;17.000;2022-08-03T02:06:27;9.25;;;5.68;;
54197;SDS011;40105;52.366;17.000;2022-08-03T02:08:53;10.93;;;6.32;;
54197;SDS011;40105;52.366;17.000;2022-08-03T02:11:19;9.93;;;5.65;;
54197;SDS011;40105;52.366;17.000;2022-08-03T02:13:45;13.07;;;6.30;;
54197;SDS011;40105;52.366;17.000;2022-08-03T02:16:11;9.73;;;5.97;;
54197;SDS011;40105;52.366;17.000;2022-08-03T02:18:37;9.32;;;5.93;;
54197;SDS011;40105;52.366;17.000;2022-08-03T02:21:04;7.22;;;5.55;;
54197;SDS011;40105;52.366;17.000;2022-08-03T02:23:29;9.55;;;6.35;;
54197;SDS011;40105;52.366;17.000;2022-08-03T02:26:00;10.15;;;5.30;;
54197;SDS011;40105;52.366;17.000;2022-08-03T02:28:28;11.52;;;5.88;;
54197;SDS011;40105;52.366;17.000;2022-08-03T02:30:55;11.02;;;5.90;;
54197;SDS011;40105;52.366;17.000;2022-08-03T02:33:25;9.02;;;5.72;;
54197;SDS011;40105;52.366;17.000;2022-08-03T02:35:51;9.43;;;5.68;;
54197;SDS011;40105;52.366;17.000;2022-08-03T02:38:17;8.73;;;5.43;;
54197;SDS011;40105;52.366;17.000;2022-08-03T02:40:44;9.68;;;5.88;;
54197;SDS011;40105;52.366;17.000;2022-08-03T02:43:11;8.32;;;5.03;;
54197;SDS011;40105;52.366;17.000;2022-08-03T02:45:41;13.23;;;6.43;;
54197;SDS011;40105;52.366;17.000;2022-08-03T02:48:06;9.32;;;5.68;;
54197;SDS011;40105;52.366;17.000;2022-08-03T02:50:32;9.82;;;6.45;;
54197;SDS011;40105;52.366;17.000;2022-08-03T02:52:59;10.00;;;6.45;;
54197;SDS011;40105;52.366;17.000;2022-08-03T02:55:25;13.25;;;7.43;;
54197;SDS011;40105;52.366;17.000;2022-08-03T02:57:51;11.80;;;6.55;;
54197;SDS011;40105;52.366;17.000;2022-08-03T03:00:16;15.30;;;7.18;;
54197;SDS011;40105;52.366;17.000;2022-08-03T03:02:42;15.40;;;6.80;;
54197;SDS011;40105;52.366;17.000;2022-08-03T03:05:07;17.42;;;7.45;;
54197;SDS011;40105;52.366;17.000;2022-08-03T03:07:34;13.63;;;6.45;;
54197;SDS011;40105;52.366;17.000;2022-08-03T03:10:00;12.55;;;7.40;;
54197;SDS011;40105;52.366;17.000;2022-08-03T03:12:25;10.02;;;6.55;;
54197;SDS011;40105;52.366;17.000;2022-08-03T03:14:51;9.93;;;6.55;;
54197;SDS011;40105;52.366;17.000;2022-08-03T03:17:17;11.90;;;6.80;;
54197;SDS011;40105;52.366;17.000;2022-08-03T03:19:42;11.27;;;6.78;;
54197;SDS011;40105;52.366;17.000;2022-08-03T03:22:09;13.90;;;6.75;;
54197;SDS011;40105;52.366;17.000;2022-08-03T03:24:35;12.05;;;7.10;;
54197;SDS011;40105;52.366;17.000;2022-08-03T03:27:00;9.55;;;6.45;;
54197;SDS011;40105;52.366;17.000;2022-08-03T03:29:26;11.45;;;5.95;;
54197;SDS011;40105;52.366;17.000;2022-08-03T03:31:52;12.20;;;7.28;;
54197;SDS011;40105;52.366;17.000;2022-08-03T03:34:17;11.43;;;7.03;;
54197;SDS011;40105;52.366;17.000;2022-08-03T03:36:43;13.32;;;6.28;;
54197;SDS011;40105;52.366;17.000;2022-08-03T03:39:08;12.83;;;7.30;;
54197;SDS011;40105;52.366;17.000;2022-08-03T03:41:34;12.35;;;6.57;;
54197;SDS011;40105;52.366;17.000;2022-08-03T03:44:00;15.67;;;6.93;;
54197;SDS011;40105;52.366;17.000;2022-08-03T03:46:25;12.43;;;6.60;;
54197;SDS011;40105;52.366;17.000;2022-08-03T03:48:50;15.77;;;6.32;;
54197;SDS011;40105;52.366;17.000;2022-08-03T03:51:16;11.25;;;6.78;;
54197;SDS011;40105;52.366;17.000;2022-08-03T03:53:54;16.77;;;7.53;;
54197;SDS011;40105;52.366;17.000;2022-08-03T03:56:20;13.63;;;6.82;;
54197;SDS011;40105;52.366;17.000;2022-08-03T03:58:45;10.20;;;6.63;;
54197;SDS011;40105;52.366;17.000;2022-08-03T04:01:11;13.77;;;6.50;;
54197;SDS011;40105;52.366;17.000;2022-08-03T04:03:36;12.23;;;6.25;;
54197;SDS011;40105;52.366;17.000;2022-08-03T04:06:01;12.33;;;6.13;;
54197;SDS011;40105;52.366;17.000;2022-08-03T04:08:45;16.30;;;6.85;;
54197;SDS011;40105;52.366;17.000;2022-08-03T04:11:30;13.13;;;6.60;;
54197;SDS011;40105;52.366;17.000;2022-08-03T04:16:56;10.88;;;6.45;;
54197;SDS011;40105;52.366;17.000;2022-08-03T04:19:42;14.35;;;6.43;;
54197;SDS011;40105;52.366;17.000;2022-08-03T04:22:09;10.40;;;5.90;;
54197;SDS011;40105;52.366;17.000;2022-08-03T04:24:39;10.98;;;6.15;;
54197;SDS011;40105;52.366;17.000;2022-08-03T04:27:05;13.07;;;6.80;;
54197;SDS011;40105;52.366;17.000;2022-08-03T04:29:32;15.52;;;6.47;;
54197;SDS011;40105;52.366;17.000;2022-08-03T04:31:57;9.18;;;6.75;;
54197;SDS011;40105;52.366;17.000;2022-08-03T04:34:23;16.83;;;6.15;;
54197;SDS011;40105;52.366;17.000;2022-08-03T04:36:49;13.77;;;6.90;;
54197;SDS011;40105;52.366;17.000;2022-08-03T04:39:22;12.93;;;6.40;;
54197;SDS011;40105;52.366;17.000;2022-08-03T04:41:49;11.65;;;7.07;;
54197;SDS011;40105;52.366;17.000;2022-08-03T04:44:15;15.00;;;6.57;;
54197;SDS011;40105;52.366;17.000;2022-08-03T04:46:41;11.55;;;6.63;;
54197;SDS011;40105;52.366;17.000;2022-08-03T04:49:08;17.42;;;7.15;;
54197;SDS011;40105;52.366;17.000;2022-08-03T04:51:33;11.32;;;5.60;;
54197;SDS011;40105;52.366;17.000;2022-08-03T04:54:02;14.68;;;6.65;;
54197;SDS011;40105;52.366;17.000;2022-08-03T04:56:27;8.67;;;5.80;;
54197;SDS011;40105;52.366;17.000;2022-08-03T04:58:52;10.70;;;6.13;;
54197;SDS011;40105;52.366;17.000;2022-08-03T05:01:17;13.90;;;6.90;;
54197;SDS011;40105;52.366;17.000;2022-08-03T05:03:44;12.25;;;6.85;;
54197;SDS011;40105;52.366;17.000;2022-08-03T05:06:09;13.60;;;6.93;;
54197;SDS011;40105;52.366;17.000;2022-08-03T05:08:34;9.80;;;6.63;;
54197;SDS011;40105;52.366;17.000;2022-08-03T05:10:59;15.87;;;6.87;;
54197;SDS011;40105;52.366;17.000;2022-08-03T05:13:25;26.43;;;7.30;;
54197;SDS011;40105;52.366;17.000;2022-08-03T05:15:50;10.10;;;6.37;;
54197;SDS011;40105;52.366;17.000;2022-08-03T05:18:15;12.80;;;6.50;;
54197;SDS011;40105;52.366;17.000;2022-08-03T05:20:40;9.32;;;5.85;;
54197;SDS011;40105;52.366;17.000;2022-08-03T05:23:05;10.17;;;6.40;;
54197;SDS011;40105;52.366;17.000;2022-08-03T05:25:31;21.13;;;6.20;;
54197;SDS011;40105;52.366;17.000;2022-08-03T05:27:56;9.30;;;5.80;;
54197;SDS011;40105;52.366;17.000;2022-08-03T05:30:21;9.10;;;6.00;;
54197;SDS011;40105;52.366;17.000;2022-08-03T05:32:46;15.13;;;7.13;;
54197;SDS011;40105;52.366;17.000;2022-08-03T05:35:11;10.00;;;5.77;;
54197;SDS011;40105;52.366;17.000;2022-08-03T05:37:36;12.37;;;6.37;;
54197;SDS011;40105;52.366;17.000;2022-08-03T05:40:02;10.33;;;6.27;;
54197;SDS011;40105;52.366;17.000;2022-08-03T05:42:28;11.27;;;6.47;;
54197;SDS011;40105;52.366;17.000;2022-08-03T05:44:53;10.67;;;6.30;;
54197;SDS011;40105;52.366;17.000;2022-08-03T05:47:18;20.33;;;5.90;;
54197;SDS011;40105;52.366;17.000;2022-08-03T05:49:43;18.02;;;5.95;;
54197;SDS011;40105;52.366;17.000;2022-08-03T05:52:08;14.80;;;6.50;;
54197;SDS011;40105;52.366;17.000;2022-08-03T05:54:34;11.47;;;5.20;;
54197;SDS011;40105;52.366;17.000;2022-08-03T05:56:59;9.30;;;5.87;;
54197;SDS011;40105;52.366;17.000;2022-08-03T05:59:24;10.30;;;6.10;;
54197;SDS011;40105;52.366;17.000;2022-08-03T06:01:52;13.65;;;5.80;;
54197;SDS011;40105;52.366;17.000;2022-08-03T06:04:17;8.93;;;5.83;;
54197;SDS011;40105;52.366;17.000;2022-08-03T06:06:42;29.03;;;5.83;;
54197;SDS011;40105;52.366;17.000;2022-08-03T06:09:08;13.80;;;5.93;;
54197;SDS011;40105;52.366;17.000;2022-08-03T06:11:34;12.13;;;5.30;;
54197;SDS011;40105;52.366;17.000;2022-08-03T06:13:59;13.13;;;6.20;;
54197;SDS011;40105;52.366;17.000;2022-08-03T06:16:24;22.80;;;5.97;;
54197;SDS011;40105;52.366;17.000;2022-08-03T06:18:50;8.75;;;5.65;;
54197;SDS011;40105;52.366;17.000;2022-08-03T06:21:15;9.93;;;5.47;;
54197;SDS011;40105;52.366;17.000;2022-08-03T06:23:40;7.30;;;4.30;;
54197;SDS011;40105;52.366;17.000;2022-08-03T06:26:07;14.00;;;4.78;;
54197;SDS011;40105;52.366;17.000;2022-08-03T06:28:32;5.83;;;3.97;;
54197;SDS011;40105;52.366;17.000;2022-08-03T06:30:57;7.17;;;3.83;;
54197;SDS011;40105;52.366;17.000;2022-08-03T06:33:23;12.73;;;3.87;;
54197;SDS011;40105;52.366;17.000;2022-08-03T06:35:50;8.48;;;3.90;;
54197;SDS011;40105;52.366;17.000;2022-08-03T06:38:15;6.33;;;3.33;;
54197;SDS011;40105;52.366;17.000;2022-08-03T06:40:40;5.53;;;3.40;;
54197;SDS011;40105;52.366;17.000;2022-08-03T06:43:05;10.07;;;3.53;;
54197;SDS011;40105;52.366;17.000;2022-08-03T06:45:31;7.22;;;3.40;;
54197;SDS011;40105;52.366;17.000;2022-08-03T06:48:01;4.72;;;3.10;;
54197;SDS011;40105;52.366;17.000;2022-08-03T06:50:26;7.93;;;3.95;;
54197;SDS011;40105;52.366;17.000;2022-08-03T06:52:51;5.03;;;2.93;;
54197;SDS011;40105;52.366;17.000;2022-08-03T06:55:17;4.97;;;2.60;;
54197;SDS011;40105;52.366;17.000;2022-08-03T06:57:42;7.73;;;3.47;;
54197;SDS011;40105;52.366;17.000;2022-08-03T07:00:07;5.83;;;2.63;;
54197;SDS011;40105;52.366;17.000;2022-08-03T07:02:33;5.97;;;2.80;;
54197;SDS011;40105;52.366;17.000;2022-08-03T07:04:58;3.60;;;2.47;;
54197;SDS011;40105;52.366;17.000;2022-08-03T07:07:24;15.27;;;3.30;;
54197;SDS011;40105;52.366;17.000;2022-08-03T07:09:49;3.60;;;2.58;;
54197;SDS011;40105;52.366;17.000;2022-08-03T07:12:14;9.13;;;2.33;;
54197;SDS011;40105;52.366;17.000;2022-08-03T07:14:39;6.00;;;2.43;;
54197;SDS011;40105;52.366;17.000;2022-08-03T07:17:04;7.13;;;2.97;;
54197;SDS011;40105;52.366;17.000;2022-08-03T07:19:30;9.90;;;2.83;;
54197;SDS011;40105;52.366;17.000;2022-08-03T07:21:55;7.83;;;2.60;;
54197;SDS011;40105;52.366;17.000;2022-08-03T07:24:20;5.30;;;2.67;;
54197;SDS011;40105;52.366;17.000;2022-08-03T07:26:45;5.93;;;2.83;;
54197;SDS011;40105;52.366;17.000;2022-08-03T07:29:11;4.90;;;2.53;;
54197;SDS011;40105;52.366;17.000;2022-08-03T07:31:36;8.90;;;5.53;;
54197;SDS011;40105;52.366;17.000;2022-08-03T07:34:02;3.17;;;2.15;;
54197;SDS011;40105;52.366;17.000;2022-08-03T07:36:27;3.50;;;2.50;;
54197;SDS011;40105;52.366;17.000;2022-08-03T07:38:52;3.20;;;2.20;;
54197;SDS011;40105;52.366;17.000;2022-08-03T07:41:17;6.10;;;2.77;;
54197;SDS011;40105;52.366;17.000;2022-08-03T07:43:43;10.13;;;2.50;;
54197;SDS011;40105;52.366;17.000;2022-08-03T07:46:08;3.17;;;2.50;;
54197;SDS011;40105;52.366;17.000;2022-08-03T07:48:33;3.50;;;2.50;;
54197;SDS011;40105;52.366;17.000;2022-08-03T07:50:58;4.17;;;2.57;;
54197;SDS011;40105;52.366;17.000;2022-08-03T07:53:23;6.10;;;2.90;;
54197;SDS011;40105;52.366;17.000;2022-08-03T07:55:49;4.40;;;2.63;;
54197;SDS011;40105;52.366;17.000;2022-08-03T07:58:14;3.80;;;2.50;;
54197;SDS011;40105;52.366;17.000;2022-08-03T08:00:42;5.43;;;2.60;;
54197;SDS011;40105;52.366;17.000;2022-08-03T08:03:08;2.67;;;2.17;;
54197;SDS011;40105;52.366;17.000;2022-08-03T08:05:34;6.13;;;2.80;;
54197;SDS011;40105;52.366;17.000;2022-08-03T08:07:59;3.10;;;2.07;;
54197;SDS011;40105;52.366;17.000;2022-08-03T08:10:25;4.88;;;2.65;;
54197;SDS011;40105;52.366;17.000;2022-08-03T08:12:51;11.85;;;3.65;;
54197;SDS011;40105;52.366;17.000;2022-08-03T08:15:16;10.85;;;3.05;;
54197;SDS011;40105;52.366;17.000;2022-08-03T08:17:42;4.80;;;2.43;;
54197;SDS011;40105;52.366;17.000;2022-08-03T08:20:08;6.07;;;2.28;;
54197;SDS011;40105;52.366;17.000;2022-08-03T08:22:33;5.88;;;2.53;;
54197;SDS011;40105;52.366;17.000;2022-08-03T08:24:59;15.33;;;4.53;;
54197;SDS011;40105;52.366;17.000;2022-08-03T08:27:24;7.70;;;2.50;;
54197;SDS011;40105;52.366;17.000;2022-08-03T08:29:49;3.40;;;2.30;;
54197;SDS011;40105;52.366;17.000;2022-08-03T08:32:14;5.43;;;2.50;;
54197;SDS011;40105;52.366;17.000;2022-08-03T08:34:40;7.15;;;2.42;;
54197;SDS011;40105;52.366;17.000;2022-08-03T08:37:05;5.03;;;2.50;;
54197;SDS011;40105;52.366;17.000;2022-08-03T08:39:30;8.07;;;2.33;;
54197;SDS011;40105;52.366;17.000;2022-08-03T08:41:55;6.10;;;2.33;;
54197;SDS011;40105;52.366;17.000;2022-08-03T08:44:20;4.53;;;2.63;;
54197;SDS011;40105;52.366;17.000;2022-08-03T08:46:46;4.50;;;2.70;;
54197;SDS011;40105;52.366;17.000;2022-08-03T08:49:11;6.47;;;2.75;;
54197;SDS011;40105;52.366;17.000;2022-08-03T08:51:37;14.77;;;3.45;;
54197;SDS011;40105;52.366;17.000;2022-08-03T08:54:04;4.55;;;2.40;;
54197;SDS011;40105;52.366;17.000;2022-08-03T08:56:31;7.40;;;2.83;;
54197;SDS011;40105;52.366;17.000;2022-08-03T08:58:57;8.40;;;2.80;;
54197;SDS011;40105;52.366;17.000;2022-08-03T09:01:23;5.75;;;2.50;;
54197;SDS011;40105;52.366;17.000;2022-08-03T09:03:48;2.90;;;1.80;;
54197;SDS011;40105;52.366;17.000;2022-08-03T09:06:14;6.07;;;2.30;;
54197;SDS011;40105;52.366;17.000;2022-08-03T09:08:39;5.67;;;2.30;;
54197;SDS011;40105;52.366;17.000;2022-08-03T09:11:04;3.70;;;2.07;;
54197;SDS011;40105;52.366;17.000;2022-08-03T09:13:29;3.97;;;2.10;;
54197;SDS011;40105;52.366;17.000;2022-08-03T09:16:14;7.43;;;2.27;;
54197;SDS011;40105;52.366;17.000;2022-08-03T09:18:40;3.63;;;2.30;;
54197;SDS011;40105;52.366;17.000;2022-08-03T09:21:12;3.50;;;1.98;;
54197;SDS011;40105;52.366;17.000;2022-08-03T09:24:11;4.50;;;1.90;;
54197;SDS011;40105;52.366;17.000;2022-08-03T09:26:30;4.85;;;2.13;;
54197;SDS011;40105;52.366;17.000;2022-08-03T09:28:58;4.03;;;2.08;;
54197;SDS011;40105;52.366;17.000;2022-08-03T09:34:01;3.90;;;2.40;;
54197;SDS011;40105;52.366;17.000;2022-08-03T09:36:40;2.88;;;2.03;;
54197;SDS011;40105;52.366;17.000;2022-08-03T09:39:07;2.40;;;1.80;;
54197;SDS011;40105;52.366;17.000;2022-08-03T09:41:34;3.78;;;2.13;;
54197;SDS011;40105;52.366;17.000;2022-08-03T09:44:00;5.87;;;1.87;;
54197;SDS011;40105;52.366;17.000;2022-08-03T09:46:25;12.03;;;2.90;;
54197;SDS011;40105;52.366;17.000;2022-08-03T09:48:52;2.35;;;1.67;;
54197;SDS011;40105;52.366;17.000;2022-08-03T09:51:19;2.37;;;1.60;;
54197;SDS011;40105;52.366;17.000;2022-08-03T09:53:48;4.22;;;1.92;;
54197;SDS011;40105;52.366;17.000;2022-08-03T09:56:13;2.57;;;1.70;;
54197;SDS011;40105;52.366;17.000;2022-08-03T09:58:45;3.93;;;2.10;;
54197;SDS011;40105;52.366;17.000;2022-08-03T10:01:11;16.30;;;1.90;;
54197;SDS011;40105;52.366;17.000;2022-08-03T10:03:37;4.53;;;1.63;;
54197;SDS011;40105;52.366;17.000;2022-08-03T10:06:15;2.90;;;2.10;;
54197;SDS011;40105;52.366;17.000;2022-08-03T10:08:41;2.00;;;1.48;;
54197;SDS011;40105;52.366;17.000;2022-08-03T10:11:06;3.80;;;1.97;;
54197;SDS011;40105;52.366;17.000;2022-08-03T10:13:31;3.50;;;1.80;;
54197;SDS011;40105;52.366;17.000;2022-08-03T10:15:57;2.33;;;1.63;;
54197;SDS011;40105;52.366;17.000;2022-08-03T10:18:22;4.33;;;2.03;;
54197;SDS011;40105;52.366;17.000;2022-08-03T10:20:51;2.77;;;2.10;;
54197;SDS011;40105;52.366;17.000;2022-08-03T10:23:17;3.67;;;1.80;;
54197;SDS011;40105;52.366;17.000;2022-08-03T10:25:43;4.45;;;1.75;;
54197;SDS011;40105;52.366;17.000;2022-08-03T10:28:11;3.00;;;1.60;;
54197;SDS011;40105;52.366;17.000;2022-08-03T10:30:37;5.72;;;2.10;;
54197;SDS011;40105;52.366;17.000;2022-08-03T10:33:07;4.13;;;2.00;;
54197;SDS011;40105;52.366;17.000;2022-08-03T10:35:35;4.70;;;1.92;;
54197;SDS011;40105;52.366;17.000;2022-08-03T10:38:02;2.28;;;1.73;;
54197;SDS011;40105;52.366;17.000;2022-08-03T10:40:28;4.43;;;1.45;;
54197;SDS011;40105;52.366;17.000;2022-08-03T10:42:54;2.88;;;1.80;;
54197;SDS011;40105;52.366;17.000;2022-08-03T10:45:22;2.10;;;1.50;;
54197;SDS011;40105;52.366;17.000;2022-08-03T10:47:48;2.60;;;2.03;;
54197;SDS011;40105;52.366;17.000;2022-08-03T10:50:14;1.70;;;1.30;;
54197;SDS011;40105;52.366;17.000;2022-08-03T10:52:56;4.63;;;1.90;;
54197;SDS011;40105;52.366;17.000;2022-08-03T10:55:31;6.00;;;1.65;;
54197;SDS011;40105;52.366;17.000;2022-08-03T10:58:41;3.70;;;1.20;;
54197;SDS011;40105;52.366;17.000;2022-08-03T11:01:00;1.63;;;1.27;;
54197;SDS011;40105;52.366;17.000;2022-08-03T11:03:25;4.87;;;1.70;;
54197;SDS011;40105;52.366;17.000;2022-08-03T11:05:51;3.10;;;1.47;;
54197;SDS011;40105;52.366;17.000;2022-08-03T11:08:31;2.55;;;1.38;;
54197;SDS011;40105;52.366;17.000;2022-08-03T11:11:00;1.85;;;1.10;;
54197;SDS011;40105;52.366;17.000;2022-08-03T11:13:26;7.30;;;1.58;;
54197;SDS011;40105;52.366;17.000;2022-08-03T11:15:55;2.10;;;1.20;;
54197;SDS011;40105;52.366;17.000;2022-08-03T11:18:21;9.70;;;1.25;;
54197;SDS011;40105;52.366;17.000;2022-08-03T11:20:50;2.50;;;1.38;;
54197;SDS011;40105;52.366;17.000;2022-08-03T11:23:16;3.00;;;1.00;;
54197;SDS011;40105;52.366;17.000;2022-08-03T11:28:26;2.03;;;1.10;;
54197;SDS011;40105;52.366;17.000;2022-08-03T11:30:52;2.40;;;1.40;;
54197;SDS011;40105;52.366;17.000;2022-08-03T11:33:30;2.93;;;1.80;;
54197;SDS011;40105;52.366;17.000;2022-08-03T11:35:59;1.88;;;1.13;;
54197;SDS011;40105;52.366;17.000;2022-08-03T11:38:24;9.38;;;1.40;;
54197;SDS011;40105;52.366;17.000;2022-08-03T11:40:50;7.63;;;1.20;;
54197;SDS011;40105;52.366;17.000;2022-08-03T11:45:48;5.03;;;1.50;;
54197;SDS011;40105;52.366;17.000;2022-08-03T11:48:20;2.00;;;1.30;;
54197;SDS011;40105;52.366;17.000;2022-08-03T11:50:45;3.17;;;1.43;;
54197;SDS011;40105;52.366;17.000;2022-08-03T11:53:14;4.10;;;1.50;;
54197;SDS011;40105;52.366;17.000;2022-08-03T11:58:07;4.28;;;1.55;;
54197;SDS011;40105;52.366;17.000;2022-08-03T12:00:32;3.50;;;1.33;;
54197;SDS011;40105;52.366;17.000;2022-08-03T12:03:04;2.37;;;1.40;;
54197;SDS011;40105;52.366;17.000;2022-08-03T12:08:01;2.63;;;1.30;;
54197;SDS011;40105;52.366;17.000;2022-08-03T12:10:26;2.33;;;1.27;;
54197;SDS011;40105;52.366;17.000;2022-08-03T12:12:55;2.38;;;1.15;;
54197;SDS011;40105;52.366;17.000;2022-08-03T12:15:28;1.97;;;1.17;;
54197;SDS011;40105;52.366;17.000;2022-08-03T12:17:53;4.10;;;1.30;;
54197;SDS011;40105;52.366;17.000;2022-08-03T12:20:23;2.25;;;1.20;;
54197;SDS011;40105;52.366;17.000;2022-08-03T12:22:48;3.50;;;1.00;;
54197;SDS011;40105;52.366;17.000;2022-08-03T12:25:24;4.60;;;1.20;;
54197;SDS011;40105;52.366;17.000;2022-08-03T12:27:50;7.25;;;1.17;;
54197;SDS011;40105;52.366;17.000;2022-08-03T12:30:15;1.40;;;1.02;;
54197;SDS011;40105;52.366;17.000;2022-08-03T12:32:41;3.40;;;1.30;;
54197;SDS011;40105;52.366;17.000;2022-08-03T12:35:07;2.53;;;1.50;;
54197;SDS011;40105;52.366;17.000;2022-08-03T12:37:32;13.03;;;1.73;;
54197;SDS011;40105;52.366;17.000;2022-08-03T12:39:58;3.07;;;1.30;;
54197;SDS011;40105;52.366;17.000;2022-08-03T12:42:34;3.92;;;1.48;;
54197;SDS011;40105;52.366;17.000;2022-08-03T12:45:16;2.75;;;1.40;;
54197;SDS011;40105;52.366;17.000;2022-08-03T12:50:22;6.47;;;1.70;;
54197;SDS011;40105;52.366;17.000;2022-08-03T12:52:47;1.85;;;1.20;;
54197;SDS011;40105;52.366;17.000;2022-08-03T12:55:17;1.98;;;1.42;;
54197;SDS011;40105;52.366;17.000;2022-08-03T12:57:43;2.53;;;1.43;;
54197;SDS011;40105;52.366;17.000;2022-08-03T13:00:11;2.97;;;1.20;;
54197;SDS011;40105;52.366;17.000;2022-08-03T13:02:37;3.10;;;1.45;;
54197;SDS011;40105;52.366;17.000;2022-08-03T13:05:08;6.97;;;1.50;;
54197;SDS011;40105;52.366;17.000;2022-08-03T13:07:38;4.57;;;1.77;;
54197;SDS011;40105;52.366;17.000;2022-08-03T13:10:04;10.45;;;1.20;;
54197;SDS011;40105;52.366;17.000;2022-08-03T13:12:29;4.10;;;1.40;;
54197;SDS011;40105;52.366;17.000;2022-08-03T13:14:57;3.90;;;1.63;;
54197;SDS011;40105;52.366;17.000;2022-08-03T13:17:22;7.53;;;1.35;;
54197;SDS011;40105;52.366;17.000;2022-08-03T13:19:48;2.63;;;1.40;;
54197;SDS011;40105;52.366;17.000;2022-08-03T13:24:39;2.08;;;1.30;;
54197;SDS011;40105;52.366;17.000;2022-08-03T13:27:04;7.22;;;1.40;;
54197;SDS011;40105;52.366;17.000;2022-08-03T13:29:31;2.28;;;1.50;;
54197;SDS011;40105;52.366;17.000;2022-08-03T13:31:56;3.07;;;1.40;;
54197;SDS011;40105;52.366;17.000;2022-08-03T13:34:21;9.33;;;1.60;;
54197;SDS011;40105;52.366;17.000;2022-08-03T13:36:47;7.70;;;1.83;;
54197;SDS011;40105;52.366;17.000;2022-08-03T13:39:12;4.10;;;1.40;;
54197;SDS011;40105;52.366;17.000;2022-08-03T13:41:37;2.67;;;1.63;;
54197;SDS011;40105;52.366;17.000;2022-08-03T13:44:02;4.10;;;1.60;;
54197;SDS011;40105;52.366;17.000;2022-08-03T13:46:27;4.47;;;1.97;;
54197;SDS011;40105;52.366;17.000;2022-08-03T13:48:53;2.77;;;1.80;;
54197;SDS011;40105;52.366;17.000;2022-08-03T13:51:18;3.10;;;1.63;;
54197;SDS011;40105;52.366;17.000;2022-08-03T13:53:43;3.83;;;1.70;;
54197;SDS011;40105;52.366;17.000;2022-08-03T13:56:08;6.47;;;1.87;;
54197;SDS011;40105;52.366;17.000;2022-08-03T13:58:33;3.63;;;1.77;;
54197;SDS011;40105;52.366;17.000;2022-08-03T14:00:59;3.22;;;1.80;;
54197;SDS011;40105;52.366;17.000;2022-08-03T14:03:24;2.57;;;1.53;;
54197;SDS011;40105;52.366;17.000;2022-08-03T14:05:49;3.30;;;1.40;;
54197;SDS011;40105;52.366;17.000;2022-08-03T14:08:14;3.33;;;1.47;;
54197;SDS011;40105;52.366;17.000;2022-08-03T14:10:40;4.63;;;1.70;;
54197;SDS011;40105;52.366;17.000;2022-08-03T14:13:06;5.18;;;1.88;;
54197;SDS011;40105;52.366;17.000;2022-08-03T14:15:31;6.40;;;1.50;;
54197;SDS011;40105;52.366;17.000;2022-08-03T14:17:56;4.27;;;1.70;;
54197;SDS011;40105;52.366;17.000;2022-08-03T14:20:22;12.27;;;1.87;;
54197;SDS011;40105;52.366;17.000;2022-08-03T14:22:47;6.10;;;2.15;;
54197;SDS011;40105;52.366;17.000;2022-08-03T14:25:12;16.07;;;2.20;;
54197;SDS011;40105;52.366;17.000;2022-08-03T14:27:37;5.67;;;1.73;;
54197;SDS011;40105;52.366;17.000;2022-08-03T14:30:03;4.00;;;2.10;;
54197;SDS011;40105;52.366;17.000;2022-08-03T14:32:28;5.30;;;1.67;;
54197;SDS011;40105;52.366;17.000;2022-08-03T14:34:53;7.63;;;2.07;;
54197;SDS011;40105;52.366;17.000;2022-08-03T14:37:18;2.57;;;1.40;;
54197;SDS011;40105;52.366;17.000;2022-08-03T14:39:44;6.97;;;1.60;;
54197;SDS011;40105;52.366;17.000;2022-08-03T14:42:10;5.75;;;2.05;;
54197;SDS011;40105;52.366;17.000;2022-08-03T14:44:36;12.93;;;1.60;;
54197;SDS011;40105;52.366;17.000;2022-08-03T14:47:01;9.23;;;2.17;;
54197;SDS011;40105;52.366;17.000;2022-08-03T14:49:26;4.63;;;2.27;;
54197;SDS011;40105;52.366;17.000;2022-08-03T14:51:51;2.40;;;1.63;;
54197;SDS011;40105;52.366;17.000;2022-08-03T14:54:16;3.00;;;1.67;;
54197;SDS011;40105;52.366;17.000;2022-08-03T14:56:41;2.77;;;1.80;;
54197;SDS011;40105;52.366;17.000;2022-08-03T14:59:07;4.37;;;1.87;;